Latest Weather Observations for Double Island Point

IDQ60801

Issued at 12:02 pm EST Monday 27 February 2017 (issued every 30 minutes, with the page automatically refreshed every 10 minutes)

About weather observations | Map of weather stations | Latest weather observations for QLD | Other Formats
Station Details ID: 040068 Name: DOUBLE ISLAND POINT LIGHTHOUSE Lat: -25.93 Lon: 153.19 Height: 95.64 m
Data from the previous 72 hours. | See also: Recent months at Double Island Point
Date/Time
EST
Temp
°C
App
Temp
°C
Dew
Point
°C
Rel
Hum
%
Delta-T
°C
Wind Press
QNH
hPa
Press
MSL
hPa
Rain since
9am
mm
Dir  Spd
km/h
Gust
km/h
Spd
kts
Gust
kts
27/11:30am 24.6 23.4 22.3 87 1.5 SSE 32 44 17 24 1016.5 1016.0 0.0
27/11:00am 24.5 22.8 22.4 88 1.4 SSE 35 44 19 24 1016.8 1016.3 0.0
27/10:30am 23.9 22.5 22.0 89 1.3 SSE 32 41 17 22 1016.7 1016.2 0.0
27/10:00am 24.8 25.5 23.6 93 0.8 SE 26 33 14 18 1016.6 1016.1 0.0
27/09:30am 23.0 23.9 22.0 94 0.7 SSE 20 28 11 15 1016.7 1016.2 0.0
27/09:00am 22.8 23.3 22.6 99 0.1 S 24 33 13 18 1016.9 1016.4 5.4
27/08:30am 22.0 21.7 21.8 99 0.1 S 26 32 14 17 1016.6 1016.1 5.4
27/08:00am 21.4 20.8 21.2 99 0.1 S 26 32 14 17 1016.2 1015.7 5.4
27/07:30am 20.7 18.6 20.5 99 0.1 S 32 37 17 20 1015.7 1015.1 5.4
27/07:00am 20.9 19.1 20.4 97 0.3 S 30 35 16 19 1015.6 1015.0 5.4
27/06:30am 20.6 17.9 20.4 99 0.1 SSE 35 46 19 25 1015.6 1015.0 5.4
27/06:14am 21.3 18.5 21.1 99 0.1 SE 37 44 20 24 1015.3 1014.7 5.2
27/06:00am 21.8 20.6 21.6 99 0.1 ESE 30 37 16 20 1015.3 1014.7 5.2
27/05:42am 21.9 21.1 21.7 99 0.1 SSE 28 39 15 21 1014.8 1014.2 5.2
27/05:30am 21.9 19.1 21.7 99 0.1 ESE 39 52 21 28 1014.8 1014.2 5.2
27/05:22am 22.3 19.7 22.1 99 0.1 SE 39 50 21 27 1014.8 1014.2 5.2
27/05:00am 21.7 19.5 21.5 99 0.1 S 35 43 19 23 1014.5 1013.9 5.2
27/04:30am 21.6 19.7 21.4 99 0.1 SSE 33 39 18 21 1014.3 1013.7 5.2
27/04:00am 21.0 19.5 21.0 100 0.0 S 30 41 16 22 1014.4 1013.8 5.0
27/03:30am 21.6 19.7 20.9 96 0.5 SSE 32 43 17 23 1014.4 1013.8 4.8
27/03:00am 22.5 22.6 21.8 96 0.5 SE 24 30 13 16 1014.5 1013.9 4.8
27/02:30am 21.1 18.2 20.8 98 0.2 SE 37 41 20 22 1014.5 1013.9 4.8
27/02:10am 22.6 22.2 22.3 98 0.2 SE 28 46 15 25 1015.0 1014.4 4.6
27/02:00am 22.4 22.6 22.1 98 0.2 S 24 30 13 16 1015.1 1014.5 4.6
27/01:30am 22.4 21.2 21.6 95 0.5 SSE 30 37 16 20 1014.8 1014.2 4.6
27/01:00am 22.3 20.8 22.1 99 0.1 SSE 33 41 18 22 1014.9 1014.3 4.6
27/12:30am 21.4 17.0 20.6 95 0.5 SSE 44 57 24 31 1015.1 1014.5 4.6
27/12:16am 22.3 18.3 20.9 92 0.9 SE 43 63 23 34 1015.1 1014.5 4.6
27/12:13am 23.5 21.1 21.0 86 1.6 SE 35 57 19 31 1015.4 1014.8 4.6
27/12:00am 23.0 20.9 20.5 86 1.6 SE 32 43 17 23 1015.6 1015.0 4.6
 
Date/Time
EST
Temp
°C
App
Temp
°C
Dew
Point
°C
Rel
Hum
%
Delta-T
°C
Wind Press
QNH
hPa
Press
MSL
hPa
Rain since
9am
mm
Dir  Spd
km/h
Gust
km/h
Spd
kts
Gust
kts
26/11:30pm 23.3 22.5 22.3 94 0.7 SE 30 35 16 19 1015.5 1014.9 4.6
26/11:00pm 21.8 19.4 20.4 92 0.9 SE 33 48 18 26 1015.8 1015.2 4.6
26/10:30pm 21.9 22.7 21.7 99 0.1 SSE 20 33 11 18 1016.5 1016.0 4.2
26/10:09pm 23.2 21.1 20.9 87 1.5 E 33 54 18 29 1015.9 1015.4 0.2
26/10:00pm 23.7 22.4 22.1 91 1.1 E 32 37 17 20 1016.0 1015.5 0.2
26/09:30pm 23.8 22.3 21.7 88 1.4 ESE 32 37 17 20 1016.2 1015.7 0.2
26/09:00pm 23.6 20.2 21.3 87 1.5 ESE 41 50 22 27 1016.3 1015.8 0.2
26/08:30pm 24.1 22.2 22.0 88 1.4 ESE 35 43 19 23 1016.2 1015.7 0.2
26/08:00pm 24.3 19.7 20.0 77 2.8 SE 44 50 24 27 1015.5 1014.9 0.2
26/07:30pm 24.3 19.9 21.2 83 2.0 SE 46 56 25 30 1015.4 1014.8 0.2
26/07:00pm 24.2 21.2 21.3 84 1.9 SE 39 44 21 24 1014.8 1014.2 0.2
26/06:30pm 24.2 21.7 22.3 89 1.3 SE 39 48 21 26 1014.7 1014.1 0.2
26/06:00pm 24.0 21.4 22.1 89 1.3 SSE 39 46 21 25 1014.6 1014.0 0.2
26/05:30pm 24.2 21.6 20.7 81 2.3 SE 35 43 19 23 1013.8 1013.2 0.2
26/05:00pm 24.5 20.9 20.2 77 2.8 SE 39 43 21 23 1014.3 1013.7 0.2
26/04:30pm 25.2 21.8 19.8 72 3.5 SE 37 43 20 23 1014.1 1013.5 0.2
26/04:00pm 25.4 21.6 21.3 78 2.7 SE 43 48 23 26 1013.9 1013.3 0.2
26/03:30pm 26.0 24.1 21.0 74 3.3 ESE 32 41 17 22 1013.8 1013.2 0.2
26/03:00pm 26.9 25.3 20.7 69 4.1 SE 30 35 16 19 1013.9 1013.3 0.2
26/02:30pm 26.9 24.9 20.7 69 4.1 SE 32 37 17 20 1013.9 1013.3 0.2
26/02:00pm 27.3 26.9 21.6 71 3.8 SSE 26 28 14 15 1014.4 1013.8 0.2
26/01:30pm 26.4 26.8 20.7 71 3.8 SSE 19 22 10 12 1014.7 1014.1 0.2
26/01:22pm 26.6 28.2 21.4 73 3.5 SE 15 20 8 11 1014.7 1014.1 0.2
26/01:00pm 24.6 20.5 19.9 75 3.0 E 41 50 22 27 1014.9 1014.3 0.0
26/12:52pm 25.7 23.3 20.3 72 3.5 SE 33 46 18 25 1014.8 1014.2 0.0
26/12:30pm 28.6 28.6 21.6 66 4.7 SE 24 30 13 16 1015.0 1014.4 0.0
26/12:00pm 27.9 27.5 21.0 66 4.6 SE 24 30 13 16 1015.0 1014.4 0.0
26/11:30am 28.0 27.8 21.3 67 4.5 SE 24 30 13 16 1015.3 1014.7 0.0
26/11:00am 28.0 28.5 21.1 66 4.6 ESE 20 24 11 13 1015.4 1014.8 0.0
26/10:30am 27.5 27.3 21.3 69 4.1 ESE 24 28 13 15 1015.5 1014.9 0.0
26/10:00am 26.6 25.3 21.4 73 3.5 ESE 30 35 16 19 1015.3 1014.7 0.0
26/09:30am 26.6 26.7 21.1 72 3.7 ESE 22 30 12 16 1015.4 1014.8 0.0
26/09:00am 26.9 26.4 21.4 72 3.7 ESE 26 32 14 17 1015.2 1014.6 0.6
26/08:30am 25.2 25.2 21.7 81 2.3 SE 24 28 13 15 1015.2 1014.6 0.6
26/08:00am 25.9 26.7 22.4 81 2.4 ESE 22 28 12 15 1014.8 1014.2 0.6
26/07:30am 25.3 26.7 22.6 85 1.8 ESE 19 24 10 13 1014.5 1013.9 0.6
26/07:00am 23.9 25.7 23.2 96 0.5 SE 19 33 10 18 1014.4 1013.8 0.6
26/06:30am 24.3 23.1 20.8 81 2.3 SE 28 33 15 18 1013.9 1013.3 0.0
26/06:00am 24.0 23.1 20.7 82 2.2 ESE 26 32 14 17 1013.8 1013.2 0.0
26/05:30am 24.0 22.9 21.1 84 1.9 ESE 28 35 15 19 1013.2 1012.7 0.0
26/05:00am 24.4 22.1 20.5 79 2.6 SE 33 39 18 21 1013.1 1012.6 0.0
26/04:30am 24.4 22.1 20.5 79 2.6 SE 33 39 18 21 1012.9 1012.4 0.0
26/04:00am 24.4 22.0 20.3 78 2.7 SE 33 43 18 23 1012.7 1012.2 0.0
26/03:30am 24.6 21.5 20.5 78 2.7 SE 37 43 20 23 1012.6 1012.1 0.0
26/03:00am 24.4 21.0 20.7 80 2.4 SE 39 43 21 23 1012.6 1012.1 0.0
26/02:30am 24.5 21.7 21.0 81 2.3 SE 37 43 20 23 1012.5 1012.0 0.0
26/02:00am 24.4 21.2 21.1 82 2.2 SE 39 46 21 25 1012.6 1012.1 0.0
26/01:30am 24.6 21.0 21.7 84 1.9 SE 43 48 23 26 1012.8 1012.3 0.0
26/01:00am 24.6 20.8 21.7 84 1.9 SE 44 52 24 28 1013.1 1012.6 0.0
26/12:30am 24.5 20.6 21.4 83 2.1 SE 44 52 24 28 1013.5 1012.9 0.0
26/12:00am 24.6 19.8 21.3 82 2.2 SE 48 54 26 29 1013.7 1013.1 0.0
 
Date/Time
EST
Temp
°C
App
Temp
°C
Dew
Point
°C
Rel
Hum
%
Delta-T
°C
Wind Press
QNH
hPa
Press
MSL
hPa
Rain since
9am
mm
Dir  Spd
km/h
Gust
km/h
Spd
kts
Gust
kts
25/11:30pm 24.6 20.1 21.1 81 2.3 SE 46 50 25 27 1014.3 1013.7 0.0
25/11:00pm 24.8 20.6 21.7 83 2.1 SE 46 52 25 28 1014.7 1014.1 0.0
25/10:30pm 24.8 20.7 21.9 84 1.9 SE 46 52 25 28 1014.9 1014.3 0.0
25/10:00pm 24.6 20.9 21.5 83 2.1 SE 43 50 23 27 1014.8 1014.2 0.0
25/09:30pm 24.7 20.4 21.4 82 2.2 SE 46 52 25 28 1014.8 1014.2 0.0
25/09:00pm 24.4 20.9 21.9 86 1.7 SE 43 46 23 25 1014.9 1014.3 0.0
25/08:30pm 24.8 23.0 22.3 86 1.7 SSE 35 41 19 22 1014.8 1014.2 0.0
25/08:00pm 24.9 23.2 22.4 86 1.7 SE 35 41 19 22 1014.6 1014.0 0.0
25/07:30pm 24.6 22.0 21.5 83 2.1 SE 37 43 20 23 1014.3 1013.7 0.0
25/07:00pm 24.5 23.0 22.0 86 1.7 SE 33 41 18 22 1014.1 1013.5 0.0
25/06:30pm 24.5 21.7 21.8 85 1.8 SE 39 43 21 23 1013.8 1013.2 0.0
25/06:00pm 25.0 22.2 21.1 79 2.6 SE 37 43 20 23 1013.5 1012.9 0.0
25/05:30pm 25.1 23.2 21.0 78 2.7 SE 32 39 17 21 1013.6 1013.0 0.0
25/05:00pm 25.1 23.7 20.4 75 3.1 SE 28 32 15 17 1013.6 1013.0 0.0
25/04:30pm 25.6 24.0 20.8 75 3.2 SE 30 33 16 18 1013.6 1013.0 0.0
25/04:00pm 25.9 23.9 20.7 73 3.4 SE 32 37 17 20 1013.6 1013.0 0.0
25/03:30pm 25.5 22.5 20.7 75 3.2 SSE 37 44 20 24 1013.5 1012.9 0.0
25/03:00pm 26.1 21.8 20.7 72 3.6 SSE 44 50 24 27 1013.3 1012.8 0.0
25/02:30pm 26.2 22.5 20.8 72 3.6 SSE 41 48 22 26 1013.7 1013.1 0.0
25/02:00pm 27.1 24.5 20.0 65 4.6 SSE 33 39 18 21 1014.0 1013.4 0.0
25/01:30pm 27.0 24.2 20.3 66 4.4 SSE 35 41 19 22 1014.4 1013.8 0.0
25/01:00pm 26.8 23.7 19.7 65 4.6 SSE 35 41 19 22 1014.8 1014.2 0.0
25/12:30pm 26.6 23.3 20.0 67 4.3 SSE 37 44 20 24 1014.9 1014.3 0.0
25/12:00pm 26.5 22.9 19.4 65 4.6 SSE 37 44 20 24 1015.2 1014.6 0.0
25/11:30am 27.0 23.5 19.6 64 4.8 SSE 37 44 20 24 1015.5 1014.9 0.0
25/11:00am 26.7 22.0 17.8 58 5.6 SE 39 43 21 23 1015.7 1015.1 0.0
25/10:30am 27.1 23.4 18.4 59 5.6 SSE 35 41 19 22 1016.0 1015.5 0.0
25/10:00am 26.7 23.0 18.3 60 5.4 SE 35 43 19 23 1016.3 1015.8 0.0
25/09:30am 26.1 21.5 18.0 61 5.1 SSE 39 43 21 23 1016.2 1015.7 0.0
25/09:00am 26.1 21.7 17.5 59 5.4 SSE 37 43 20 23 1016.3 1015.8 0.0
25/08:30am 26.1 21.4 17.7 60 5.3 SSE 39 44 21 24 1016.2 1015.7 0.0
25/08:00am 25.6 21.1 18.3 64 4.6 SSE 39 44 21 24 1016.0 1015.5 0.0
25/07:30am 25.6 21.1 18.3 64 4.6 SE 39 44 21 24 1015.7 1015.1 0.0
25/07:00am 25.1 21.3 19.0 69 3.9 SE 37 43 20 23 1015.5 1014.9 0.0
25/06:30am 24.5 19.8 18.7 70 3.7 SE 41 46 22 25 1015.2 1014.6 0.0
25/06:00am 24.2 20.3 19.5 75 3.0 SSE 39 44 21 24 1015.0 1014.4 0.0
25/05:30am 24.3 22.6 20.6 80 2.4 SE 30 39 16 21 1015.0 1014.4 0.0
25/05:00am 24.0 22.4 20.1 79 2.5 SSE 28 35 15 19 1014.8 1014.2 0.0
25/04:30am 23.9 22.3 20.0 79 2.5 SSE 28 33 15 18 1014.5 1013.9 0.0
25/04:00am 23.8 22.6 20.1 80 2.4 SSE 26 30 14 16 1014.4 1013.8 0.0
25/03:30am 23.9 22.7 20.0 79 2.5 SSE 26 32 14 17 1014.5 1013.9 0.0
25/03:00am 23.9 22.3 20.0 79 2.5 SSE 28 33 15 18 1014.3 1013.7 0.0
25/02:30am 24.0 22.3 19.9 78 2.7 SE 28 32 15 17 1014.3 1013.7 0.0
25/02:00am 23.9 22.2 19.8 78 2.6 SE 28 32 15 17 1014.3 1013.7 0.0
25/01:30am 23.9 22.1 19.6 77 2.8 SE 28 32 15 17 1014.5 1013.9 0.0
25/01:00am 24.0 22.9 20.3 80 2.4 SE 26 30 14 16 1014.8 1014.2 0.0
25/12:30am 24.0 22.8 20.1 79 2.5 SE 26 33 14 18 1015.1 1014.5 0.0
25/12:00am 24.1 22.8 20.6 81 2.3 SE 28 32 15 17 1015.4 1014.8 0.0
 
Date/Time
EST
Temp
°C
App
Temp
°C
Dew
Point
°C
Rel
Hum
%
Delta-T
°C
Wind Press
QNH
hPa
Press
MSL
hPa
Rain since
9am
mm
Dir  Spd
km/h
Gust
km/h
Spd
kts
Gust
kts
24/11:30pm 24.1 23.1 21.2 84 1.9 SE 28 33 15 18 1015.8 1015.2 0.0
24/11:00pm 24.1 22.0 20.6 81 2.3 SE 32 35 17 19 1016.0 1015.5 0.0
24/10:30pm 24.2 22.3 20.9 82 2.2 SE 32 37 17 20 1016.2 1015.7 0.0
24/10:00pm 24.3 22.4 21.0 82 2.2 SE 32 35 17 19 1016.3 1015.8 0.0
24/09:30pm 24.5 22.6 21.4 83 2.1 ESE 33 37 18 20 1016.5 1016.0 0.0
24/09:00pm 24.6 22.8 21.1 81 2.3 ESE 32 39 17 21 1016.5 1016.0 0.0
24/08:30pm 24.6 22.5 20.9 80 2.4 ESE 33 41 18 22 1016.4 1015.9 0.0
24/08:00pm 24.6 22.2 21.1 81 2.3 ESE 35 41 19 22 1016.2 1015.7 0.0
24/07:30pm 24.6 21.5 20.5 78 2.7 ESE 37 44 20 24 1016.1 1015.6 0.0
24/07:00pm 24.7 21.4 20.8 79 2.6 SE 39 44 21 24 1015.9 1015.4 0.0
24/06:30pm 24.8 21.0 20.5 77 2.8 SE 41 46 22 25 1015.8 1015.2 0.0
24/06:00pm 25.0 21.0 20.9 78 2.7 SE 43 48 23 26 1015.7 1015.1 0.0
24/05:30pm 25.2 21.6 20.9 77 2.8 SE 41 44 22 24 1015.6 1015.0 0.0
24/05:00pm 25.5 22.0 21.2 77 2.8 SE 41 46 22 25 1015.4 1014.8 0.0
24/04:30pm 25.4 21.9 21.1 77 2.8 SE 41 46 22 25 1015.5 1014.9 0.0
24/04:00pm 26.2 22.9 21.6 76 3.1 SE 41 46 22 25 1015.4 1014.8 0.0
24/03:30pm 26.5 23.9 21.5 74 3.3 SSE 37 44 20 24 1015.5 1014.9 0.0
24/03:00pm 27.3 25.0 22.0 73 3.6 SSE 37 43 20 23 1015.5 1014.9 0.0
24/02:30pm 26.9 24.2 21.2 71 3.8 SE 37 43 20 23 1015.7 1015.1 0.0
24/02:00pm 27.3 25.4 21.3 69 4.0 SSE 33 37 18 20 1015.9 1015.4 0.0
24/01:30pm 26.8 24.6 20.4 68 4.2 SE 32 35 17 19 1016.2 1015.7 0.0
24/01:00pm 27.8 26.1 21.3 67 4.3 SE 32 35 17 19 1016.4 1015.9 0.0
24/12:30pm 27.5 25.9 20.8 67 4.4 SE 30 35 16 19 1016.7 1016.2 0.0

Other Formats:

Comma delimited format used in spreadsheet applications
http://www.bom.gov.au/fwo/IDQ60801/IDQ60801.94584.axf

JavaScript Object Notation format (JSON) in row-major order
http://www.bom.gov.au/fwo/IDQ60801/IDQ60801.94584.json